Fairfax, Iowa
Current Conditions -  °F | °C
As of 3:52 AM on Friday 24 Oct 2014 (Local Time) from KCID Reporting Station
Moderate Fog Moderate Fog  
Wind Chill: 42°   Ceiling: 100
Heat Index: 42°   Visibility: 0.25mi
Dew Point: 42°   Wind: 3mph
Humidity: 100%   Direction: 120°ESE
Pressure: 30.03"   Gusts: NA
Location:  41.92°N, 91.78°W
Report Text: KCID 240852Z AUTO 12003KT 1/4SM FG VV001 06/06 A3003 RMK AO2 SLP170 T00560056 58004
Loading
Personal Weather Stations






























Interactive Weather Map
Tropical Storm Tracking
New forecast layout! Learn more

10-Day Weather Forecast

Advertisements
Track Severe Weather on mobile